sensor_id;sensor_type;location;lat;lon;timestamp;P1;durP1;ratioP1;P2;durP2;ratioP2
48665;SDS011;34452;50.796;4.994;2023-09-12T18:35:46;12.95;;;7.63;;
48665;SDS011;34452;50.796;4.994;2023-09-12T18:38:12;13.20;;;7.15;;
48665;SDS011;34452;50.796;4.994;2023-09-12T18:40:37;14.98;;;7.88;;
48665;SDS011;34452;50.796;4.994;2023-09-12T18:43:03;13.45;;;7.70;;
48665;SDS011;34452;50.796;4.994;2023-09-12T18:45:29;16.35;;;7.50;;
48665;SDS011;34452;50.796;4.994;2023-09-12T18:47:55;11.77;;;7.30;;
48665;SDS011;34452;50.796;4.994;2023-09-12T18:50:20;9.07;;;5.20;;
48665;SDS011;34452;50.796;4.994;2023-09-12T18:52:46;12.52;;;6.65;;
48665;SDS011;34452;50.796;4.994;2023-09-12T18:55:15;10.05;;;5.63;;
48665;SDS011;34452;50.796;4.994;2023-09-12T18:57:41;14.18;;;6.47;;
48665;SDS011;34452;50.796;4.994;2023-09-12T19:00:10;12.90;;;5.43;;
48665;SDS011;34452;50.796;4.994;2023-09-12T19:02:36;9.32;;;5.57;;
48665;SDS011;34452;50.796;4.994;2023-09-12T19:05:02;9.23;;;5.47;;
48665;SDS011;34452;50.796;4.994;2023-09-12T19:07:29;11.18;;;5.93;;
48665;SDS011;34452;50.796;4.994;2023-09-12T19:09:54;10.88;;;6.28;;
48665;SDS011;34452;50.796;4.994;2023-09-12T19:12:20;13.40;;;6.57;;
48665;SDS011;34452;50.796;4.994;2023-09-12T19:14:46;9.70;;;5.65;;
48665;SDS011;34452;50.796;4.994;2023-09-12T19:17:11;13.50;;;6.13;;
48665;SDS011;34452;50.796;4.994;2023-09-12T19:19:37;8.55;;;5.20;;
48665;SDS011;34452;50.796;4.994;2023-09-12T19:22:03;13.45;;;6.40;;
48665;SDS011;34452;50.796;4.994;2023-09-12T19:24:29;15.13;;;6.75;;
48665;SDS011;34452;50.796;4.994;2023-09-12T19:26:55;17.65;;;6.93;;
48665;SDS011;34452;50.796;4.994;2023-09-12T19:29:20;20.08;;;7.55;;
48665;SDS011;34452;50.796;4.994;2023-09-12T19:31:47;11.38;;;6.68;;
48665;SDS011;34452;50.796;4.994;2023-09-12T19:34:13;12.63;;;6.85;;
48665;SDS011;34452;50.796;4.994;2023-09-12T19:36:39;11.38;;;6.53;;
48665;SDS011;34452;50.796;4.994;2023-09-12T19:39:05;13.50;;;7.20;;
48665;SDS011;34452;50.796;4.994;2023-09-12T19:41:30;12.65;;;6.35;;
48665;SDS011;34452;50.796;4.994;2023-09-12T19:46:22;11.95;;;7.22;;
48665;SDS011;34452;50.796;4.994;2023-09-12T19:48:48;15.77;;;8.75;;
48665;SDS011;34452;50.796;4.994;2023-09-12T19:51:14;17.30;;;9.07;;
48665;SDS011;34452;50.796;4.994;2023-09-12T19:56:06;14.77;;;7.20;;
48665;SDS011;34452;50.796;4.994;2023-09-12T20:00:59;15.93;;;8.60;;
48665;SDS011;34452;50.796;4.994;2023-09-12T20:03:28;13.40;;;6.93;;
48665;SDS011;34452;50.796;4.994;2023-09-12T20:05:54;9.90;;;6.30;;
48665;SDS011;34452;50.796;4.994;2023-09-12T20:08:20;15.13;;;8.40;;
48665;SDS011;34452;50.796;4.994;2023-09-12T20:10:47;14.52;;;8.48;;
48665;SDS011;34452;50.796;4.994;2023-09-12T20:13:13;14.35;;;7.85;;
48665;SDS011;34452;50.796;4.994;2023-09-12T20:15:39;13.63;;;8.40;;
48665;SDS011;34452;50.796;4.994;2023-09-12T20:18:09;19.58;;;9.18;;
48665;SDS011;34452;50.796;4.994;2023-09-12T20:20:36;18.55;;;9.45;;
48665;SDS011;34452;50.796;4.994;2023-09-12T20:23:03;20.27;;;10.90;;
48665;SDS011;34452;50.796;4.994;2023-09-12T20:27:56;23.88;;;12.93;;
48665;SDS011;34452;50.796;4.994;2023-09-12T20:30:21;26.83;;;13.90;;
48665;SDS011;34452;50.796;4.994;2023-09-12T20:32:47;28.70;;;15.10;;
48665;SDS011;34452;50.796;4.994;2023-09-12T20:35:17;25.15;;;14.02;;
48665;SDS011;34452;50.796;4.994;2023-09-12T20:37:43;27.63;;;16.50;;
48665;SDS011;34452;50.796;4.994;2023-09-12T20:40:08;25.15;;;14.18;;
48665;SDS011;34452;50.796;4.994;2023-09-12T20:45:03;29.48;;;16.13;;
48665;SDS011;34452;50.796;4.994;2023-09-12T20:47:29;28.45;;;15.23;;
48665;SDS011;34452;50.796;4.994;2023-09-12T20:49:54;25.83;;;14.70;;
48665;SDS011;34452;50.796;4.994;2023-09-12T20:52:22;30.80;;;14.40;;
48665;SDS011;34452;50.796;4.994;2023-09-12T20:54:48;25.95;;;14.85;;
48665;SDS011;34452;50.796;4.994;2023-09-12T20:57:14;25.98;;;15.07;;
48665;SDS011;34452;50.796;4.994;2023-09-12T21:02:06;18.27;;;11.35;;
48665;SDS011;34452;50.796;4.994;2023-09-12T21:04:32;25.60;;;15.00;;
48665;SDS011;34452;50.796;4.994;2023-09-12T21:06:58;19.52;;;12.70;;
48665;SDS011;34452;50.796;4.994;2023-09-12T21:09:24;25.10;;;13.50;;
48665;SDS011;34452;50.796;4.994;2023-09-12T21:11:51;21.98;;;13.48;;
48665;SDS011;34452;50.796;4.994;2023-09-12T21:14:17;26.10;;;14.00;;
48665;SDS011;34452;50.796;4.994;2023-09-12T21:16:43;20.83;;;13.15;;
48665;SDS011;34452;50.796;4.994;2023-09-12T21:19:09;30.10;;;14.32;;
48665;SDS011;34452;50.796;4.994;2023-09-12T21:21:34;22.88;;;13.95;;
48665;SDS011;34452;50.796;4.994;2023-09-12T21:24:01;21.73;;;12.15;;
48665;SDS011;34452;50.796;4.994;2023-09-12T21:26:27;23.00;;;13.23;;
48665;SDS011;34452;50.796;4.994;2023-09-12T21:28:53;22.85;;;13.90;;
48665;SDS011;34452;50.796;4.994;2023-09-12T21:31:18;27.27;;;15.10;;
48665;SDS011;34452;50.796;4.994;2023-09-12T21:33:44;25.38;;;13.48;;
48665;SDS011;34452;50.796;4.994;2023-09-12T21:36:10;28.65;;;15.10;;
48665;SDS011;34452;50.796;4.994;2023-09-12T21:38:36;28.00;;;14.60;;
48665;SDS011;34452;50.796;4.994;2023-09-12T21:41:02;23.17;;;12.95;;
48665;SDS011;34452;50.796;4.994;2023-09-12T21:43:28;24.20;;;14.15;;
48665;SDS011;34452;50.796;4.994;2023-09-12T21:45:54;19.75;;;11.98;;
48665;SDS011;34452;50.796;4.994;2023-09-12T21:48:21;24.42;;;14.75;;
48665;SDS011;34452;50.796;4.994;2023-09-12T21:50:47;21.00;;;12.43;;
48665;SDS011;34452;50.796;4.994;2023-09-12T21:53:16;20.48;;;12.35;;
48665;SDS011;34452;50.796;4.994;2023-09-12T21:55:44;24.23;;;14.02;;
48665;SDS011;34452;50.796;4.994;2023-09-12T21:58:09;31.58;;;16.63;;
48665;SDS011;34452;50.796;4.994;2023-09-12T22:00:35;22.15;;;12.70;;
48665;SDS011;34452;50.796;4.994;2023-09-12T22:03:01;20.20;;;12.48;;
48665;SDS011;34452;50.796;4.994;2023-09-12T22:05:27;22.15;;;12.48;;
48665;SDS011;34452;50.796;4.994;2023-09-12T22:07:53;24.75;;;14.05;;
48665;SDS011;34452;50.796;4.994;2023-09-12T22:10:19;24.60;;;13.32;;
48665;SDS011;34452;50.796;4.994;2023-09-12T22:12:46;25.45;;;14.05;;
48665;SDS011;34452;50.796;4.994;2023-09-12T22:17:39;20.30;;;11.48;;
48665;SDS011;34452;50.796;4.994;2023-09-12T22:20:05;19.08;;;11.68;;
48665;SDS011;34452;50.796;4.994;2023-09-12T22:22:31;21.15;;;12.52;;
48665;SDS011;34452;50.796;4.994;2023-09-12T22:24:57;19.38;;;11.13;;
48665;SDS011;34452;50.796;4.994;2023-09-12T22:27:23;21.65;;;13.13;;
48665;SDS011;34452;50.796;4.994;2023-09-12T22:29:51;22.83;;;12.73;;
48665;SDS011;34452;50.796;4.994;2023-09-12T22:32:17;30.48;;;15.63;;
48665;SDS011;34452;50.796;4.994;2023-09-12T22:34:43;19.95;;;12.00;;
48665;SDS011;34452;50.796;4.994;2023-09-12T22:37:10;50.08;;;22.88;;
48665;SDS011;34452;50.796;4.994;2023-09-12T22:39:36;30.75;;;16.50;;
48665;SDS011;34452;50.796;4.994;2023-09-12T22:42:01;23.88;;;14.75;;
48665;SDS011;34452;50.796;4.994;2023-09-12T22:44:27;38.65;;;16.83;;
48665;SDS011;34452;50.796;4.994;2023-09-12T22:46:53;29.65;;;16.15;;
48665;SDS011;34452;50.796;4.994;2023-09-12T22:49:19;35.08;;;19.15;;
48665;SDS011;34452;50.796;4.994;2023-09-12T22:51:45;35.78;;;19.08;;
48665;SDS011;34452;50.796;4.994;2023-09-12T22:54:10;25.33;;;14.88;;
48665;SDS011;34452;50.796;4.994;2023-09-12T22:56:36;30.90;;;15.98;;
48665;SDS011;34452;50.796;4.994;2023-09-12T22:59:02;28.35;;;17.08;;
48665;SDS011;34452;50.796;4.994;2023-09-12T23:01:31;43.70;;;20.17;;
48665;SDS011;34452;50.796;4.994;2023-09-12T23:03:57;34.20;;;19.63;;
48665;SDS011;34452;50.796;4.994;2023-09-12T23:08:48;33.03;;;18.10;;
48665;SDS011;34452;50.796;4.994;2023-09-12T23:11:14;28.17;;;15.93;;
48665;SDS011;34452;50.796;4.994;2023-09-12T23:13:40;28.25;;;15.45;;
48665;SDS011;34452;50.796;4.994;2023-09-12T23:16:06;39.85;;;19.88;;
48665;SDS011;34452;50.796;4.994;2023-09-12T23:18:32;32.28;;;17.80;;
48665;SDS011;34452;50.796;4.994;2023-09-12T23:20:58;31.45;;;17.00;;
48665;SDS011;34452;50.796;4.994;2023-09-12T23:23:23;38.10;;;20.13;;
48665;SDS011;34452;50.796;4.994;2023-09-12T23:25:51;36.15;;;20.90;;
48665;SDS011;34452;50.796;4.994;2023-09-12T23:28:18;35.70;;;18.67;;
48665;SDS011;34452;50.796;4.994;2023-09-12T23:30:44;25.33;;;15.88;;
48665;SDS011;34452;50.796;4.994;2023-09-12T23:33:09;24.20;;;15.68;;
48665;SDS011;34452;50.796;4.994;2023-09-12T23:35:35;22.63;;;15.38;;
48665;SDS011;34452;50.796;4.994;2023-09-12T23:38:01;26.02;;;15.50;;
48665;SDS011;34452;50.796;4.994;2023-09-12T23:40:27;27.70;;;16.77;;
48665;SDS011;34452;50.796;4.994;2023-09-12T23:42:53;28.85;;;17.75;;
48665;SDS011;34452;50.796;4.994;2023-09-12T23:45:19;29.02;;;16.92;;
48665;SDS011;34452;50.796;4.994;2023-09-12T23:47:44;28.55;;;17.98;;
48665;SDS011;34452;50.796;4.994;2023-09-12T23:50:10;24.27;;;16.58;;
48665;SDS011;34452;50.796;4.994;2023-09-12T23:52:36;26.48;;;15.55;;
48665;SDS011;34452;50.796;4.994;2023-09-12T23:55:01;28.88;;;14.93;;
48665;SDS011;34452;50.796;4.994;2023-09-12T23:57:27;21.42;;;13.00;;
48665;SDS011;34452;50.796;4.994;2023-09-12T23:59:53;22.52;;;14.10;;
